createdAt,value
2022-08-05T00:02:22.028Z,31.54
2022-08-05T00:04:55.542Z,31.83
2022-08-05T00:07:59.799Z,32.14
2022-08-05T00:10:10.466Z,31.84
2022-08-05T00:12:48.487Z,32.38
2022-08-05T00:15:55.905Z,32.08
2022-08-05T00:18:10.429Z,32.43
2022-08-05T00:20:48.852Z,32.22
2022-08-05T00:23:15.478Z,32.76
2022-08-05T00:25:46.148Z,32.49
2022-08-05T00:28:13.460Z,32.54
2022-08-05T00:30:41.231Z,32.55
2022-08-05T00:33:15.436Z,32.56
2022-08-05T00:36:16.040Z,32.40
2022-08-05T00:38:44.327Z,32.69
2022-08-05T00:41:11.762Z,32.86
2022-08-05T00:43:46.704Z,33.00
2022-08-05T00:46:16.026Z,32.69
2022-08-05T00:48:51.117Z,32.73
2022-08-05T00:51:50.935Z,33.39
2022-08-05T00:54:05.818Z,33.32
2022-08-05T00:56:32.315Z,33.61
2022-08-05T00:59:00.198Z,33.54
2022-08-05T01:01:42.574Z,34.01
2022-08-05T01:04:14.058Z,34.65
2022-08-05T01:07:22.774Z,35.00
2022-08-05T01:09:58.842Z,35.29
2022-08-05T01:12:29.801Z,35.88
2022-08-05T01:15:04.042Z,36.46
2022-08-05T01:17:31.597Z,36.82
2022-08-05T01:20:31.593Z,36.97
2022-08-05T01:23:40.586Z,38.06
2022-08-05T01:26:13.958Z,38.42
2022-08-05T01:29:05.161Z,38.63
2022-08-05T01:31:46.915Z,39.20
2022-08-05T01:34:35.792Z,39.04
2022-08-05T01:37:24.665Z,39.18
2022-08-05T01:39:58.722Z,39.29
2022-08-05T01:42:27.763Z,39.68
2022-08-05T01:44:56.630Z,39.88
2022-08-05T01:47:39.655Z,40.07
2022-08-05T01:50:16.021Z,40.38
2022-08-05T01:52:50.023Z,41.46
2022-08-05T01:55:20.290Z,41.37
2022-08-05T01:58:12.462Z,41.76
2022-08-05T02:00:41.982Z,42.33
2022-08-05T02:03:46.671Z,42.71
2022-08-05T02:06:33.935Z,42.83
2022-08-05T02:09:00.797Z,42.94
2022-08-05T02:11:37.574Z,43.07
2022-08-05T02:14:13.127Z,43.04
2022-08-05T02:16:44.561Z,43.34
2022-08-05T02:19:22.754Z,43.62
2022-08-05T02:22:26.597Z,43.46
2022-08-05T02:25:03.579Z,43.57
2022-08-05T02:27:57.896Z,43.88
2022-08-05T02:30:20.653Z,43.69
2022-08-05T02:32:51.300Z,43.62
2022-08-05T02:35:22.151Z,43.87
2022-08-05T02:37:56.687Z,43.67
2022-08-05T02:40:27.442Z,43.91
2022-08-05T02:42:55.646Z,44.05
2022-08-05T02:45:25.348Z,43.60
2022-08-05T02:48:11.435Z,43.66
2022-08-05T02:50:43.772Z,43.55
2022-08-05T02:53:19.095Z,43.51
2022-08-05T02:55:59.519Z,43.80
2022-08-05T02:58:30.066Z,44.11
2022-08-05T03:01:00.855Z,43.99
2022-08-05T03:03:33.693Z,44.77
2022-08-05T03:06:55.888Z,44.90
2022-08-05T03:08:52.431Z,44.59
2022-08-05T03:11:56.954Z,44.35
2022-08-05T03:14:09.960Z,44.67
2022-08-05T03:16:40.490Z,45.16
2022-08-05T03:19:17.373Z,45.06
2022-08-05T03:21:53.623Z,45.81
2022-08-05T03:24:29.358Z,45.21
2022-08-05T03:26:56.940Z,45.36
2022-08-05T03:29:24.063Z,45.97
2022-08-05T03:31:56.900Z,45.77
2022-08-05T03:34:28.769Z,46.02
2022-08-05T03:36:55.380Z,46.64
2022-08-05T03:39:27.112Z,46.52
2022-08-05T03:41:56.262Z,45.81
2022-08-05T03:44:23.481Z,46.53
2022-08-05T03:46:50.140Z,46.54
2022-08-05T03:49:16.999Z,47.10
2022-08-05T03:52:48.707Z,47.05
2022-08-05T03:55:51.304Z,46.99
2022-08-05T03:57:41.416Z,46.71
2022-08-05T04:00:11.489Z,46.82
2022-08-05T04:02:57.578Z,45.75
2022-08-05T04:05:28.006Z,45.58
2022-08-05T04:08:03.493Z,45.75
2022-08-05T04:10:37.982Z,45.94
2022-08-05T04:13:07.249Z,45.78
2022-08-05T04:15:36.532Z,46.75
2022-08-05T04:18:09.313Z,45.66
2022-08-05T04:20:36.461Z,45.50
2022-08-05T04:23:03.105Z,45.72
2022-08-05T04:25:56.639Z,45.25
2022-08-05T04:28:17.416Z,45.01
2022-08-05T04:30:44.187Z,45.22
2022-08-05T04:33:11.014Z,45.11
2022-08-05T04:36:10.900Z,45.13
2022-08-05T04:38:39.463Z,44.94
2022-08-05T04:41:07.469Z,44.91
2022-08-05T04:43:37.422Z,45.08
2022-08-05T04:46:05.059Z,45.41
2022-08-05T04:48:32.176Z,44.78
2022-08-05T04:51:03.839Z,44.73
2022-08-05T04:53:38.556Z,45.47
2022-08-05T04:56:33.068Z,45.46
2022-08-05T04:58:54.324Z,46.03
2022-08-05T05:01:33.693Z,46.11
2022-08-05T05:04:07.535Z,46.63
2022-08-05T05:06:39.827Z,46.05
2022-08-05T05:09:14.125Z,46.08
2022-08-05T05:11:54.444Z,45.99
2022-08-05T05:14:31.718Z,45.71
2022-08-05T05:17:01.774Z,45.95
2022-08-05T05:19:37.162Z,45.75
2022-08-05T05:22:22.782Z,45.29
2022-08-05T05:24:57.335Z,45.37
2022-08-05T05:27:44.793Z,45.77
2022-08-05T05:30:29.190Z,45.99
2022-08-05T05:32:57.166Z,45.67
2022-08-05T05:35:27.896Z,45.61
2022-08-05T05:38:00.155Z,45.60
2022-08-05T05:40:29.348Z,45.45
2022-08-05T05:42:57.307Z,45.72
2022-08-05T05:45:24.703Z,46.87
2022-08-05T05:48:06.555Z,46.35
2022-08-05T05:50:41.033Z,46.60
2022-08-05T05:53:21.340Z,46.20
2022-08-05T05:55:52.345Z,46.63
2022-08-05T05:58:31.719Z,47.30
2022-08-05T06:01:02.556Z,47.03
2022-08-05T06:04:01.720Z,46.76
2022-08-05T06:06:28.229Z,47.01
2022-08-05T06:08:57.460Z,47.15
2022-08-05T06:11:24.041Z,47.22
2022-08-05T06:13:54.005Z,47.79
2022-08-05T06:16:28.518Z,48.41
2022-08-05T06:19:00.878Z,48.10
2022-08-05T06:21:36.140Z,48.49
2022-08-05T06:24:04.517Z,48.65
2022-08-05T06:26:33.934Z,48.14
2022-08-05T06:29:06.033Z,48.76
2022-08-05T06:31:48.132Z,48.58
2022-08-05T06:34:19.903Z,48.54
2022-08-05T06:36:57.472Z,48.56
2022-08-05T06:39:27.076Z,49.12
2022-08-05T06:41:58.640Z,49.08
2022-08-05T06:44:25.635Z,49.02
2022-08-05T06:46:52.644Z,48.68
2022-08-05T06:49:21.369Z,48.46
2022-08-05T06:52:07.597Z,48.67
2022-08-05T06:54:54.048Z,48.59
2022-08-05T06:58:02.725Z,48.30
2022-08-05T07:00:07.859Z,48.77
2022-08-05T07:02:46.129Z,49.44
2022-08-05T07:05:18.596Z,49.03
2022-08-05T07:07:48.853Z,48.86
2022-08-05T07:10:16.387Z,48.40
2022-08-05T07:13:01.944Z,48.35
2022-08-05T07:16:00.992Z,48.39
2022-08-05T07:18:31.540Z,49.00
2022-08-05T07:20:58.484Z,48.82
2022-08-05T07:23:32.147Z,49.08
2022-08-05T07:25:59.134Z,48.73
2022-08-05T07:28:26.302Z,48.47
2022-08-05T07:30:54.996Z,48.88
2022-08-05T07:33:36.464Z,48.96
2022-08-05T07:36:21.498Z,49.57
2022-08-05T07:38:49.167Z,49.75
2022-08-05T07:42:13.277Z,49.40
2022-08-05T07:44:18.545Z,49.83
2022-08-05T07:46:48.639Z,49.99
2022-08-05T07:49:18.284Z,49.38
2022-08-05T07:51:53.355Z,49.37
2022-08-05T07:54:31.684Z,49.28
2022-08-05T07:57:17.611Z,49.91
2022-08-05T07:59:49.260Z,50.50
2022-08-05T08:02:17.662Z,50.45
2022-08-05T08:04:49.388Z,50.21
2022-08-05T08:07:16.418Z,51.16
2022-08-05T08:09:44.738Z,51.08
2022-08-05T08:12:33.541Z,51.05
2022-08-05T08:15:02.191Z,51.32
2022-08-05T08:17:31.252Z,50.73
2022-08-05T08:20:21.496Z,49.69
2022-08-05T08:22:44.358Z,49.97
2022-08-05T08:25:15.688Z,50.32
2022-08-05T08:27:44.765Z,49.53
2022-08-05T08:30:27.006Z,50.14
2022-08-05T08:32:56.896Z,50.11
2022-08-05T08:35:26.762Z,49.43
2022-08-05T08:37:56.285Z,49.46
2022-08-05T08:40:23.760Z,49.80
2022-08-05T08:42:53.023Z,49.12
2022-08-05T08:45:26.752Z,48.89
2022-08-05T08:48:12.654Z,49.83
2022-08-05T08:51:22.004Z,49.25
2022-08-05T08:53:35.477Z,49.22
2022-08-05T08:56:05.957Z,49.25
2022-08-05T08:58:43.949Z,49.09
2022-08-05T09:01:17.238Z,49.83
2022-08-05T09:03:54.258Z,50.30
2022-08-05T09:06:24.325Z,50.84
2022-08-05T09:08:57.941Z,51.10
2022-08-05T09:11:51.549Z,51.05
2022-08-05T09:14:57.620Z,51.79
2022-08-05T09:17:03.767Z,50.76
2022-08-05T09:19:36.874Z,51.16
2022-08-05T09:22:22.396Z,49.94
2022-08-05T09:25:13.814Z,49.26
2022-08-05T09:28:05.961Z,49.02
2022-08-05T09:30:34.281Z,47.89
2022-08-05T09:33:04.918Z,47.61
2022-08-05T09:35:32.705Z,47.15
2022-08-05T09:38:16.853Z,47.14
2022-08-05T09:40:53.732Z,47.01
2022-08-05T09:43:30.835Z,47.23
2022-08-05T09:46:28.002Z,46.62
2022-08-05T09:49:08.054Z,47.09
2022-08-05T09:51:43.158Z,46.57
2022-08-05T09:54:10.097Z,47.01
2022-08-05T09:56:38.450Z,47.13
2022-08-05T09:59:08.350Z,49.06
2022-08-05T10:01:39.723Z,50.80
2022-08-05T10:04:15.934Z,51.89
2022-08-05T10:06:58.974Z,53.68
2022-08-05T10:09:28.199Z,52.79
2022-08-05T10:12:30.591Z,51.20
2022-08-05T10:15:16.961Z,51.47
2022-08-05T10:17:54.465Z,50.46
2022-08-05T10:20:23.924Z,49.63
2022-08-05T10:22:52.366Z,48.71
2022-08-05T10:25:19.525Z,48.59
2022-08-05T10:28:09.358Z,48.08
2022-08-05T10:31:20.921Z,48.14
2022-08-05T10:33:25.590Z,47.55
2022-08-05T10:35:59.702Z,47.83
2022-08-05T10:38:28.556Z,48.56
2022-08-05T10:41:23.239Z,49.88
2022-08-05T10:44:00.914Z,51.07
2022-08-05T10:46:43.640Z,51.47
2022-08-05T10:49:16.744Z,49.56
2022-08-05T10:52:00.270Z,50.16
2022-08-05T10:54:56.254Z,50.78
2022-08-05T10:57:31.799Z,50.53
2022-08-05T11:00:22.795Z,50.99
2022-08-05T11:03:25.144Z,50.55
2022-08-05T11:06:16.234Z,49.90
2022-08-05T11:09:24.499Z,48.39
2022-08-05T11:12:26.810Z,47.95
2022-08-05T11:15:21.260Z,47.32
2022-08-05T11:18:05.901Z,47.64
2022-08-05T11:20:46.098Z,46.46
2022-08-05T11:24:05.717Z,45.83
2022-08-05T11:26:33.871Z,45.13
2022-08-05T11:29:11.489Z,42.34
2022-08-05T11:31:58.375Z,43.29
2022-08-05T11:34:38.900Z,41.79
2022-08-05T11:37:06.093Z,41.56
2022-08-05T11:39:55.229Z,43.25
2022-08-05T11:42:27.977Z,42.23
2022-08-05T11:45:02.446Z,40.67
2022-08-05T11:47:49.511Z,39.84
2022-08-05T11:50:17.729Z,38.43
2022-08-05T11:52:46.181Z,40.82
2022-08-05T11:55:16.177Z,40.55
2022-08-05T11:58:10.520Z,41.49
2022-08-05T12:00:38.626Z,41.72
2022-08-05T12:03:42.229Z,41.11
2022-08-05T12:06:24.838Z,41.43
2022-08-05T12:08:54.840Z,41.07
2022-08-05T12:11:39.872Z,40.16
2022-08-05T12:14:10.383Z,41.21
2022-08-05T12:16:39.318Z,41.91
2022-08-05T12:19:08.215Z,42.59
2022-08-05T12:22:02.669Z,42.60
2022-08-05T12:24:30.044Z,41.69
2022-08-05T12:26:57.296Z,42.64
2022-08-05T12:29:26.428Z,43.14
2022-08-05T12:31:57.775Z,43.85
2022-08-05T12:34:30.366Z,42.98
2022-08-05T12:37:00.596Z,42.95
2022-08-05T12:39:37.528Z,42.36
2022-08-05T12:42:15.006Z,43.52
2022-08-05T12:44:43.148Z,43.51
2022-08-05T12:47:12.350Z,41.57
2022-08-05T12:50:03.537Z,43.69
2022-08-05T12:52:38.620Z,43.59
2022-08-05T12:55:26.573Z,40.39
2022-08-05T12:58:49.931Z,40.31
2022-08-05T13:02:01.007Z,42.89
2022-08-05T13:03:41.810Z,43.23
2022-08-05T13:06:17.146Z,42.93
2022-08-05T13:08:51.791Z,43.13
2022-08-05T13:11:25.451Z,43.75
2022-08-05T13:14:35.999Z,43.33
2022-08-05T13:17:08.908Z,43.69
2022-08-05T13:19:51.606Z,43.55
2022-08-05T13:22:29.201Z,43.00
2022-08-05T13:24:58.145Z,43.34
2022-08-05T13:27:38.253Z,42.57
2022-08-05T13:30:34.389Z,42.80
2022-08-05T13:32:54.017Z,43.58
2022-08-05T13:35:42.930Z,43.72
2022-08-05T13:38:10.779Z,44.60
2022-08-05T13:40:50.059Z,43.54
2022-08-05T13:43:21.925Z,42.42
2022-08-05T13:45:48.878Z,42.03
2022-08-05T13:48:58.070Z,43.33
2022-08-05T13:51:13.923Z,43.06
2022-08-05T13:53:47.703Z,43.20
2022-08-05T13:56:18.474Z,43.31
2022-08-05T13:58:53.216Z,42.85
2022-08-05T14:01:25.851Z,43.36
2022-08-05T14:04:21.246Z,42.82
2022-08-05T14:06:47.911Z,44.14
2022-08-05T14:09:25.357Z,43.26
2022-08-05T14:12:04.471Z,41.87
2022-08-05T14:14:42.818Z,42.75
2022-08-05T14:17:17.026Z,42.81
2022-08-05T14:19:54.391Z,43.35
2022-08-05T14:22:23.889Z,42.49
2022-08-05T14:24:57.039Z,42.80
2022-08-05T14:27:24.217Z,44.19
2022-08-05T14:29:55.441Z,43.34
2022-08-05T14:32:27.680Z,43.42
2022-08-05T14:34:54.787Z,44.01
2022-08-05T14:37:24.239Z,44.38
2022-08-05T14:40:14.281Z,44.29
2022-08-05T14:42:43.251Z,44.02
2022-08-05T14:45:10.227Z,44.14
2022-08-05T14:48:03.700Z,45.02
2022-08-05T14:50:25.294Z,45.30
2022-08-05T14:52:58.423Z,44.96
2022-08-05T14:55:28.767Z,44.67
2022-08-05T14:58:11.251Z,45.04
2022-08-05T15:00:58.813Z,44.78
2022-08-05T15:03:33.756Z,44.84
2022-08-05T15:06:08.126Z,45.84
2022-08-05T15:08:59.868Z,46.45
2022-08-05T15:11:52.656Z,46.24
2022-08-05T15:14:34.247Z,46.43
2022-08-05T15:17:03.974Z,47.22
2022-08-05T15:19:31.908Z,46.41
2022-08-05T15:22:00.947Z,46.68
2022-08-05T15:24:28.307Z,46.95
2022-08-05T15:26:55.994Z,47.89
2022-08-05T15:29:23.514Z,47.54
2022-08-05T15:31:56.471Z,48.32
2022-08-05T15:34:32.307Z,48.39
2022-08-05T15:37:03.461Z,48.24
2022-08-05T15:40:58.614Z,48.32
2022-08-05T15:42:54.422Z,49.00
2022-08-05T15:45:06.931Z,49.14
2022-08-05T15:47:36.305Z,49.07
2022-08-05T15:50:03.766Z,49.35
2022-08-05T15:52:52.934Z,48.77
2022-08-05T15:55:19.276Z,48.69
2022-08-05T15:57:51.329Z,48.69
2022-08-05T16:00:25.992Z,49.02
2022-08-05T16:02:59.402Z,49.30
2022-08-05T16:05:28.161Z,48.46
2022-08-05T16:07:55.213Z,48.38
2022-08-05T16:10:26.739Z,48.82
2022-08-05T16:12:53.656Z,48.88
2022-08-05T16:15:23.135Z,48.36
2022-08-05T16:17:57.987Z,48.91
2022-08-05T16:20:25.420Z,48.79
2022-08-05T16:22:51.938Z,48.72
2022-08-05T16:25:18.501Z,48.67
2022-08-05T16:28:00.388Z,48.75
2022-08-05T16:30:32.449Z,48.74
2022-08-05T16:33:00.094Z,48.63
2022-08-05T16:35:28.637Z,48.66
2022-08-05T16:38:15.603Z,49.73
2022-08-05T16:40:51.602Z,50.19
2022-08-05T16:43:23.485Z,50.24
2022-08-05T16:46:07.434Z,50.38
2022-08-05T16:48:39.115Z,50.25
2022-08-05T16:51:08.969Z,49.75
2022-08-05T16:54:04.148Z,50.27
2022-08-05T16:56:29.221Z,49.69
2022-08-05T16:58:57.409Z,50.48
2022-08-05T17:01:24.546Z,50.50
2022-08-05T17:03:51.815Z,50.81
2022-08-05T17:06:18.512Z,50.51
2022-08-05T17:08:52.035Z,51.35
2022-08-05T17:11:23.725Z,51.36
2022-08-05T17:14:00.137Z,50.93
2022-08-05T17:16:33.573Z,50.74
2022-08-05T17:19:02.820Z,50.64
2022-08-05T17:21:36.034Z,51.28
2022-08-05T17:24:19.600Z,50.93
2022-08-05T17:26:52.373Z,51.44
2022-08-05T17:29:22.229Z,51.48
2022-08-05T17:31:58.192Z,50.86
2022-08-05T17:34:30.166Z,50.21
2022-08-05T17:36:59.808Z,49.83
2022-08-05T17:39:34.424Z,50.20
2022-08-05T17:42:20.104Z,49.58
2022-08-05T17:44:50.208Z,49.35
2022-08-05T17:47:22.538Z,49.88
2022-08-05T17:49:59.922Z,49.53
2022-08-05T17:52:31.511Z,49.40
2022-08-05T17:54:58.062Z,49.27
2022-08-05T17:57:24.712Z,49.51
2022-08-05T18:00:03.726Z,48.82
2022-08-05T18:02:35.360Z,49.02
2022-08-05T18:05:06.459Z,49.10
2022-08-05T18:07:41.536Z,50.03
2022-08-05T18:10:10.754Z,50.57
2022-08-05T18:12:37.899Z,50.77
2022-08-05T18:15:05.442Z,50.77
2022-08-05T18:17:58.890Z,50.61
2022-08-05T18:20:29.436Z,50.37
2022-08-05T18:23:00.611Z,50.46
2022-08-05T18:25:39.588Z,50.39
2022-08-05T18:28:11.648Z,50.27
2022-08-05T18:30:40.186Z,50.19
2022-08-05T18:33:08.431Z,49.86
2022-08-05T18:36:01.032Z,49.63
2022-08-05T18:38:25.822Z,49.40
2022-08-05T18:41:56.592Z,48.70
2022-08-05T18:43:42.734Z,48.93
2022-08-05T18:46:14.868Z,48.06
2022-08-05T18:48:41.949Z,47.73
2022-08-05T18:52:04.445Z,47.23
2022-08-05T18:54:14.651Z,47.68
2022-08-05T18:56:41.737Z,47.21
2022-08-05T18:59:43.239Z,47.24
2022-08-05T19:02:04.836Z,48.09
2022-08-05T19:04:38.109Z,47.75
2022-08-05T19:07:24.864Z,47.46
2022-08-05T19:09:56.661Z,47.62
2022-08-05T19:12:23.867Z,46.90
2022-08-05T19:15:00.522Z,46.45
2022-08-05T19:17:59.575Z,46.15
2022-08-05T19:20:15.962Z,45.58
2022-08-05T19:22:44.098Z,45.58
2022-08-05T19:25:10.842Z,45.51
2022-08-05T19:27:48.716Z,45.22
2022-08-05T19:30:16.656Z,45.41
2022-08-05T19:32:47.385Z,45.32
2022-08-05T19:35:14.399Z,45.27
2022-08-05T19:38:04.400Z,44.98
2022-08-05T19:40:28.683Z,45.17
2022-08-05T19:43:04.731Z,44.81
2022-08-05T19:45:33.130Z,44.68
2022-08-05T19:48:03.384Z,45.07
2022-08-05T19:50:31.830Z,45.00
2022-08-05T19:52:58.573Z,44.68
2022-08-05T19:56:13.641Z,44.05
2022-08-05T19:58:28.327Z,43.67
2022-08-05T20:00:56.232Z,44.04
2022-08-05T20:03:22.812Z,44.07
2022-08-05T20:05:56.444Z,44.36
2022-08-05T20:08:24.229Z,44.30
2022-08-05T20:10:51.593Z,44.08
2022-08-05T20:13:30.380Z,44.50
2022-08-05T20:16:06.275Z,44.52
2022-08-05T20:18:36.302Z,44.50
2022-08-05T20:21:06.491Z,44.39
2022-08-05T20:23:39.506Z,44.64
2022-08-05T20:26:17.499Z,44.85
2022-08-05T20:28:45.694Z,44.79
2022-08-05T20:31:12.579Z,44.58
2022-08-05T20:33:42.560Z,44.77
2022-08-05T20:36:10.068Z,45.19
2022-08-05T20:38:37.753Z,45.15
2022-08-05T20:41:08.085Z,44.88
2022-08-05T20:44:00.400Z,45.49
2022-08-05T20:46:25.070Z,45.50
2022-08-05T20:48:52.336Z,45.72
2022-08-05T20:51:18.887Z,45.90
2022-08-05T20:53:56.872Z,45.98
2022-08-05T20:56:28.763Z,46.04
2022-08-05T20:58:56.700Z,46.49
2022-08-05T21:01:38.250Z,46.56
2022-08-05T21:04:07.179Z,46.89
2022-08-05T21:06:36.737Z,47.09
2022-08-05T21:09:05.576Z,47.11
2022-08-05T21:12:09.558Z,47.64
2022-08-05T21:14:20.084Z,47.70
2022-08-05T21:16:47.827Z,47.64
2022-08-05T21:19:16.580Z,47.83
2022-08-05T21:21:50.764Z,48.18
2022-08-05T21:24:19.577Z,48.14
2022-08-05T21:26:57.928Z,48.21
2022-08-05T21:29:32.078Z,48.32
2022-08-05T21:31:59.429Z,48.34
2022-08-05T21:34:26.042Z,48.51
2022-08-05T21:36:54.750Z,48.63
2022-08-05T21:39:26.942Z,48.57
2022-08-05T21:42:01.060Z,49.07
2022-08-05T21:44:28.304Z,48.99
2022-08-05T21:46:55.740Z,48.83
2022-08-05T21:49:59.522Z,49.40
2022-08-05T21:52:22.374Z,49.28
2022-08-05T21:54:55.009Z,49.54
2022-08-05T21:57:31.423Z,49.77
2022-08-05T22:00:07.104Z,49.69
2022-08-05T22:02:38.107Z,50.21
2022-08-05T22:05:05.391Z,50.06
2022-08-05T22:07:40.186Z,50.70
2022-08-05T22:10:26.556Z,50.66
2022-08-05T22:12:53.396Z,50.70
2022-08-05T22:16:01.912Z,50.64
2022-08-05T22:18:07.019Z,50.91
2022-08-05T22:20:35.624Z,51.10
2022-08-05T22:23:24.120Z,51.13
2022-08-05T22:26:11.811Z,50.78
2022-08-05T22:28:41.484Z,51.16
2022-08-05T22:31:07.952Z,51.17
2022-08-05T22:33:57.945Z,51.30
2022-08-05T22:36:24.628Z,50.95
2022-08-05T22:38:54.642Z,51.05
2022-08-05T22:42:04.932Z,51.12
2022-08-05T22:44:08.796Z,50.74
2022-08-05T22:46:40.214Z,50.25
2022-08-05T22:49:12.413Z,49.93
2022-08-05T22:52:05.086Z,49.93
2022-08-05T22:54:35.562Z,49.25
2022-08-05T22:57:03.571Z,49.33
2022-08-05T22:59:43.918Z,48.90
2022-08-05T23:02:29.024Z,48.53
2022-08-05T23:04:58.232Z,48.28
2022-08-05T23:07:28.999Z,48.25
2022-08-05T23:10:01.981Z,47.36
2022-08-05T23:12:32.700Z,47.75
2022-08-05T23:15:03.318Z,46.79
2022-08-05T23:17:32.749Z,47.29
2022-08-05T23:20:16.581Z,46.96
2022-08-05T23:22:47.624Z,46.67
2022-08-05T23:25:52.394Z,45.95
2022-08-05T23:28:07.995Z,46.16
2022-08-05T23:30:40.473Z,46.23
2022-08-05T23:33:15.932Z,46.29
2022-08-05T23:35:43.186Z,47.02
2022-08-05T23:38:12.140Z,46.66
2022-08-05T23:40:38.803Z,46.91
2022-08-05T23:43:24.267Z,46.63
2022-08-05T23:45:52.451Z,47.17
2022-08-05T23:48:19.737Z,46.84
2022-08-05T23:50:46.398Z,46.61
2022-08-05T23:53:22.362Z,47.09
2022-08-05T23:55:49.710Z,46.69
2022-08-05T23:58:31.419Z,46.90
